• Join FlightAware (Why Join?)
  • Login
  • US Flag 
04:46AM EDT


 

Airport Tracker/Info


-or-


 

Live Flight TrackerFlight Track Log ✈ UPS496 ✈ 18-May-2013 ✈ KSDF - KMSP

Flight Track Log - Related Links

Times and Time Zones

All times are in EDT time to prevent confusion due to time zone crossing. See the UPS496 flight status page for this flight to view local times or setup timezone preferences in your user account.

Time Position Orientation Groundspeed Altitude Reporting Facility
EDT Latitude Longitude Course Direction KTS MPH feet Rate Location/Type
05:10AM 38.0880 -85.8340 318° Northwest 279 321 5,800  Level FlightAware
05:11AM 38.1140 -85.8540 329° Northwest 283 326 7,000 2,820 Climbing FlightAware
05:11AM 38.1480 -85.8800 329° Northwest 286 329 8,400 2,820 Climbing FlightAware
05:12AM 38.1790 -85.9050 328° Northwest 293 337 9,600 2,460 Climbing FlightAware
05:12AM 38.2190 -85.9240 340° North 311 358 10,700 1,680 Climbing FlightAware
05:13AM 38.2790 -85.9400 348° North 350 403 11,600 1,560 Climbing FlightAware
05:14AM 38.3390 -85.9710 338° Northwest 371 427 12,800 2,160 Climbing FlightAware
05:14AM 38.4140 -86.0070 339° North 382 440 14,700 2,460 Climbing FlightAware
05:15AM 38.4890 -86.0420 340° North 386 444 16,500 2,220 Climbing FlightAware
05:16AM 38.5560 -86.0750 339° North 395 455 17,900 2,100 Climbing FlightAware
05:16AM 38.6260 -86.1080 340° North 403 464 19,300 1,920 Climbing FlightAware
05:17AM 38.7070 -86.1460 340° North 410 472 20,700 1,980 Climbing FlightAware
05:18AM 38.8310 -86.2030 340° North 420 483 23,200 2,100 Climbing FlightAware
05:19AM 38.9070 -86.2370 341° North 422 486 24,600 1,920 Climbing FlightAware
05:20AM 38.9700 -86.2940 325° Northwest 424 488 25,800 1,680 Climbing FlightAware
05:20AM 39.0280 -86.3850 309° West 432 497 27,000 1,500 Climbing FlightAware
05:21AM 39.0800 -86.4660 310° West 443 510 28,000 1,380 Climbing FlightAware
05:22AM 39.1380 -86.5570 309° West 451 519 29,000 1,380 Climbing FlightAware
05:22AM 39.1900 -86.6390 309° West 457 526 30,000 1,860 Climbing FlightAware
05:23AM 39.2440 -86.7230 310° West 453 521 31,500 2,220 Climbing FlightAware
05:24AM 39.3040 -86.8180 309° West 446 513 33,200 2,100 Climbing FlightAware
05:25AM 39.3570 -86.9020 309° West 442 509 34,500 1,800 Climbing FlightAware
05:25AM 39.4090 -86.9830 310° West 439 505 35,600 1,620 Climbing FlightAware
05:26AM 39.4650 -87.0710 310° West 435 501 36,800 1,500 Climbing FlightAware
05:27AM 39.5150 -87.1520 309° West 430 495 37,800 840 Climbing FlightAware
05:27AM 39.5740 -87.2440 310° West 428 493 38,000 120 Climbing FlightAware
05:28AM 39.6230 -87.3220 309° West 427 491 38,000  Level FlightAware
05:29AM 39.6780 -87.4110 309° West 430 495 38,000  Level FlightAware
05:29AM 39.7280 -87.4900 309° West 433 498 38,000  Level FlightAware
05:30AM 39.7760 -87.5670 309° West 435 501 38,000  Level FlightAware
05:31AM 39.8290 -87.6530 309° West 436 502 38,000  Level FlightAware
05:32AM 39.8870 -87.7470 309° West 438 504 38,000  Level FlightAware
05:32AM 39.9450 -87.8410 309° West 439 505 38,000  Level FlightAware
05:33AM 39.9960 -87.9230 309° West 440 506 38,000  Level FlightAware
05:34AM 40.0450 -88.0020 309° West 441 507 38,000  Level FlightAware
05:34AM 40.1060 -88.1020 309° West 440 506 38,000  Level FlightAware
05:35AM 40.1570 -88.1850 309° West 441 507 38,000  Level FlightAware
05:36AM 40.2070 -88.2670 309° West 441 507 38,000  Level FlightAware
05:36AM 40.2640 -88.3610 308° West 440 506 38,000  Level FlightAware
05:37AM 40.3140 -88.4430 309° West 439 505 38,000  Level FlightAware
05:38AM 40.3720 -88.5390 308° West 439 505 38,000  Level FlightAware
05:39AM 40.4240 -88.6250 308° West 438 504 38,000  Level FlightAware
05:39AM 40.4780 -88.7160 308° West 437 503 38,000  Level FlightAware
05:40AM 40.5290 -88.8020 308° West 434 499 38,000  Level FlightAware
05:41AM 40.5850 -88.8950 308° West 434 499 38,000  Level FlightAware
05:41AM 40.6350 -88.9800 308° West 433 498 38,000  Level FlightAware
05:42AM 40.6830 -89.0610 308° West 432 497 38,000  Level FlightAware
05:43AM 40.7380 -89.1540 308° West 431 496 38,000  Level FlightAware
05:43AM 40.7870 -89.2380 308° West 429 494 38,000  Level FlightAware
05:44AM 40.8350 -89.3190 308° West 428 493 38,000  Level FlightAware
05:45AM 40.8920 -89.4160 308° West 426 490 38,000  Level FlightAware
05:46AM 40.9390 -89.4960 308° West 425 489 38,000  Level FlightAware
05:46AM 40.9930 -89.5880 308° West 424 488 38,000  Level FlightAware
05:47AM 41.0400 -89.6690 308° West 425 489 38,000  Level FlightAware
05:48AM 41.0960 -89.7650 308° West 426 490 38,000  Level FlightAware
05:48AM 41.1450 -89.8490 308° West 426 490 38,000  Level FlightAware
05:49AM 41.1930 -89.9330 307° West 426 490 38,000  Level FlightAware
05:50AM 41.2450 -90.0240 307° West 428 493 38,000  Level FlightAware
05:50AM 41.2950 -90.1100 308° West 428 493 38,000  Level FlightAware
05:51AM 41.3480 -90.2030 307° West 429 494 38,000  Level FlightAware
05:52AM 41.3960 -90.2880 307° West 431 496 38,000  Level FlightAware
05:53AM 41.4510 -90.3850 307° West 432 497 38,000  Level FlightAware
05:53AM 41.4910 -90.4550 307° West 434 499 38,000  Level FlightAware
05:54AM 41.5470 -90.5540 307° West 436 502 38,000  Level FlightAware
05:55AM 41.6020 -90.6510 307° West 438 504 38,000  Level FlightAware
05:55AM 41.6520 -90.7400 307° West 439 505 38,000  Level FlightAware
05:56AM 41.7060 -90.8360 307° West 439 505 38,000  Level FlightAware
05:57AM 41.7550 -90.9240 307° West 440 506 38,000  Level FlightAware
05:57AM 41.8030 -91.0090 307° West 440 506 38,000  Level FlightAware
05:58AM 41.8560 -91.1050 307° West 441 507 38,000  Level FlightAware
05:59AM 41.9070 -91.1980 306° West 440 506 38,000  Level FlightAware
06:00AM 41.9630 -91.3000 306° West 439 505 38,000  Level FlightAware
06:00AM 42.0100 -91.3810 308° West 438 504 38,000  Level FlightAware
06:01AM 42.0740 -91.4520 321° Northwest 436 502 38,000  Level FlightAware
06:02AM 42.1440 -91.5160 326° Northwest 436 502 38,000  Level FlightAware
06:02AM 42.2160 -91.5820 326° Northwest 435 501 38,000  Level FlightAware
06:03AM 42.2910 -91.6510 326° Northwest 431 496 38,000 -600 Level FlightAware
06:04AM 42.3580 -91.7120 326° Northwest 427 491 37,200 -1,380 Descending FlightAware
06:04AM 42.4240 -91.7740 325° Northwest 432 497 36,200 -1,380 Descending FlightAware
06:05AM 42.4960 -91.8400 326° Northwest 433 498 35,300 -1,200 Descending FlightAware
06:06AM 42.5640 -91.9030 326° Northwest 435 501 34,500 -1,020 Descending FlightAware
06:07AM 42.6290 -91.9640 325° Northwest 435 501 34,000 -360 Descending FlightAware
06:07AM 42.7060 -92.0360 326° Northwest 436 502 34,000  Level FlightAware
06:08AM 42.7720 -92.0980 325° Northwest 437 503 34,000  Level FlightAware
06:09AM 42.8400 -92.1610 326° Northwest 439 505 34,000  Level FlightAware
06:09AM 42.9160 -92.2220 330° Northwest 439 505 34,000  Level FlightAware
06:10AM 43.0000 -92.2850 331° Northwest 438 504 34,000  Level FlightAware
06:11AM 43.0710 -92.3370 332° Northwest 439 505 34,000  Level FlightAware
06:11AM 43.1420 -92.3910 331° Northwest 438 504 34,000  Level FlightAware
06:12AM 43.2160 -92.4460 332° Northwest 436 502 34,000 -600 Level FlightAware
06:13AM 43.2910 -92.5020 331° Northwest 439 505 33,200 -2,280 Descending FlightAware
06:14AM 43.3630 -92.5560 331° Northwest 450 518 31,000 -3,540 Descending FlightAware
06:14AM 43.4480 -92.6200 331° Northwest 461 531 28,200 -3,540 Descending FlightAware
06:15AM 43.5230 -92.6770 331° Northwest 460 529 26,000 -3,120 Descending FlightAware
06:16AM 43.5970 -92.7330 331° Northwest 451 519 24,100 -2,640 Descending FlightAware
06:16AM 43.6710 -92.7900 331° Northwest 440 506 22,300 -2,760 Descending FlightAware
06:17AM 43.7430 -92.8450 331° Northwest 436 502 20,200 -3,000 Descending FlightAware
06:18AM 43.8280 -92.9100 331° Northwest 424 488 18,100 -2,700 Descending FlightAware
06:18AM 43.8930 -92.9600 331° Northwest 414 476 16,400 -2,640 Descending FlightAware
06:19AM 43.9600 -93.0120 331° Northwest 404 465 14,600 -2,700 Descending FlightAware
06:20AM 44.0330 -93.0690 331° Northwest 392 451 12,600 -2,700 Descending FlightAware
06:21AM 44.0970 -93.1150 333° Northwest 385 443 10,800 -1,680 Descending FlightAware
06:21AM 44.1890 -93.1200 358° North 367 422 10,000 -540 Descending FlightAware
06:22AM 44.2560 -93.1070 North 357 411 10,000  Level FlightAware
06:22AM 44.2820 -93.1020 North 336 387 10,000 -240 Level FlightAware
06:23AM 44.3450 -93.0910 North 297 342 9,800 -540 Descending FlightAware
06:23AM 44.3670 -93.0870 North 295 339 9,500 -1,380 Descending FlightAware
06:24AM 44.3990 -93.0800 North 294 338 8,900 -1,620 Descending FlightAware
06:24AM 44.4480 -93.0710 North 294 338 7,900 -1,620 Descending FlightAware
06:25AM 44.4800 -93.0650 North 295 339 7,300 -1,680 Descending FlightAware
06:25AM 44.5210 -93.0570 North 296 341 6,400 -1,680 Descending FlightAware
06:25AM 44.5340 -93.0540 North 296 341 6,200 -1,380 Descending FlightAware
06:26AM 44.5740 -93.0470 North 294 338 5,500 -1,200 Descending FlightAware
06:26AM 44.6150 -93.0390 North 293 337 5,000 -600 Descending FlightAware
06:27AM 44.6510 -93.0330 North 296 341 5,000 -600 Level FlightAware
06:27AM 44.6830 -93.0260 North 292 336 4,500 -1,200 Descending FlightAware
06:28AM 44.7090 -93.0210 North 293 337 4,100 -1,080 Descending FlightAware
06:28AM 44.7430 -93.0140 North 282 325 3,700 -840 Descending FlightAware
06:28AM 44.7670 -93.0100 North 269 310 3,500 -540 Descending FlightAware
06:29AM 44.7950 -93.0220 343° North 232 267 3,300 -360 Descending FlightAware
06:29AM 44.8020 -93.0330 312° West 213 245 3,300 -480 Level FlightAware
06:29AM 44.8150 -93.0670 298° West 194 223 3,000 -840 Descending FlightAware
06:30AM 44.8290 -93.0980 302° West 173 199 2,500 -960 Descending FlightAware
06:30AM 44.8350 -93.1140 298° West 164 189 2,300 -900 Descending FlightAware
06:31AM 44.8450 -93.1350 304° West 156 180 1,900 -900 Descending FlightAware
06:31AM 44.8560 -93.1600 302° West 150 173 1,500 -780 Descending FlightAware
06:32AM 44.8650 -93.1810 301° West 143 165 1,200 -720 Descending FlightAware
06:32AM 44.8730 -93.2010 299° West 136 157 900 -720 Descending FlightAware
06:40AM 44.8820 -93.2218 296° West  Level Estimated